Flight Track Log - Related Links

Times and Time Zones

All times are in EDT time to prevent confusion due to time zone crossing. See the SAS449 flight status page for this flight to view local times or setup timezone preferences in your user account.

Time Position Orientation Groundspeed Altitude Reporting Facility
EDT Latitude Longitude Course Direction KTS MPH feet Rate Location/Type
Mon 12:49:00 PM 57.3487 12.3403 174° South  Level Estimated
Mon 12:50:00 PM 57.2701 12.3553 174° South  Level Estimated
Mon 12:51:00 PM 57.1916 12.3702 174° South  Level Estimated
Mon 12:52:00 PM 57.1130 12.3850 174° South  Level Estimated
Mon 12:53:00 PM 57.0345 12.3998 174° South  Level Estimated
Mon 12:54:00 PM 56.9559 12.4145 174° South  Level Estimated
Mon 12:55:00 PM 56.8774 12.4292 174° South  Level Estimated
Mon 12:56:00 PM 56.7988 12.4438 174° South  Level Estimated
Mon 12:57:00 PM 56.6967 12.4627 174° South  Level Estimated
Mon 12:58:00 PM 56.5945 12.4814 174° South  Level Estimated
Mon 12:59:00 PM 56.4924 12.5001 174° South  Level Estimated
Mon 01:00:00 PM 56.3903 12.5187 174° South  Level Estimated
Mon 01:01:00 PM 56.2881 12.5372 174° South  Level Estimated
Mon 01:02:00 PM 56.1860 12.5555 174° South  Level Estimated
Mon 01:03:00 PM 56.0839 12.5738 174° South  Level Estimated
Mon 01:04:00 PM 55.9817 12.5920 174° South  Level Estimated
Mon 01:05:00 PM 55.8796 12.6101 174° South  Level Estimated
Mon 01:06:00 PM 55.7774 12.6281 174° South  Level Estimated
Mon 01:07:00 PM 55.6753 12.6460 174° South  Level Estimated
Mon 01:08:00 PM 55.6179 12.6560 174° South  Level Estimated
Mon 01:09:00 PM 55.6179 12.6560 159° South  Level Estimated
Mon 01:10:00 PM 55.6179 12.6560 159° South  Level Estimated
Mon 01:11:00 PM 55.6179 12.6560 159° South  Level Estimated
Mon 01:12:00 PM 55.6179 12.6560 159° South  Level Estimated
Mon 01:13:00 PM 55.6179 12.6560 159° South  Level Estimated
Mon 01:14:00 PM 55.6179 12.6560 159° South  Level Estimated
Mon 01:15:00 PM 55.6179 12.6560 159° South  Level Estimated
Mon 01:16:00 PM 55.6179 12.6560 159° South  Level Estimated
Mon 01:17:00 PM 55.6179 12.6560 159° South  Level Estimated
Mon 01:18:00 PM 55.6179 12.6560 159° South  Level Estimated
Mon 01:19:00 PM 55.6179 12.6560 159° South  Level Estimated
Mon 01:20:00 PM 55.6179 12.6560 159° South  Level Estimated
Mon 01:21:00 PM 55.6179 12.6560 159° South  Level Estimated

Login

Don't have an account? Register now (free) for customized features, flight alerts, and more!